Time;durP1;ratioP1;P1;durP2;ratioP2;P2;SDS_P1;SDS_P2;PMS_P1;PMS_P2;Temp;Humidity;BMP_temperature;BMP_pressure;BME280_temperature;BME280_humidity;BME280_pressure;Samples;Min_cycle;Max_cycle;Signal;HPM_P1;HPM_P2
2021/08/18 00:02:14;;;;;;;20.23;12.90;;;17.50;99.00;;;;;;4862710;29;20064;-76
2021/08/18 00:04:39;;;;;;;19.75;12.38;;;17.40;98.90;;;;;;4862583;29;20049;-76
2021/08/18 00:07:05;;;;;;;18.40;12.02;;;17.50;99.20;;;;;;4867781;29;20037;-76
2021/08/18 00:09:31;;;;;;;20.75;12.95;;;17.50;99.20;;;;;;4867334;29;20053;-76
2021/08/18 00:11:56;;;;;;;18.95;12.00;;;17.40;99.40;;;;;;4866658;29;20077;-76
2021/08/18 00:14:22;;;;;;;18.05;11.85;;;17.30;99.60;;;;;;4867006;29;20074;-76
2021/08/18 00:16:48;;;;;;;17.98;12.65;;;17.20;99.80;;;;;;4866300;29;20121;-76
2021/08/18 00:19:14;;;;;;;19.02;12.35;;;17.30;99.70;;;;;;4859253;29;20067;-76
2021/08/18 00:21:41;;;;;;;17.63;11.63;;;17.30;99.80;;;;;;4858737;29;20053;-76
2021/08/18 00:24:07;;;;;;;20.83;12.60;;;17.40;99.90;;;;;;4859272;29;20142;-76
2021/08/18 00:26:32;;;;;;;19.50;11.80;;;17.30;99.80;;;;;;4866856;29;20450;-76
2021/08/18 00:28:58;;;;;;;21.52;13.55;;;17.30;99.90;;;;;;4872013;29;20045;-75
2021/08/18 00:31:24;;;;;;;19.30;12.45;;;17.20;99.80;;;;;;4868428;29;20081;-76
2021/08/18 00:33:50;;;;;;;17.27;11.80;;;17.40;99.90;;;;;;4858341;29;20096;-76
2021/08/18 00:36:15;;;;;;;20.17;12.40;;;17.40;99.90;;;;;;4858915;29;20078;-76
2021/08/18 00:38:41;;;;;;;18.92;12.55;;;17.30;99.90;;;;;;4858591;29;20053;-75
2021/08/18 00:41:07;;;;;;;17.33;12.13;;;17.30;99.90;;;;;;4858964;29;20047;-75
2021/08/18 00:43:33;;;;;;;18.60;12.88;;;17.30;99.90;;;;;;4858805;29;20884;-75
2021/08/18 00:45:59;;;;;;;20.42;12.63;;;17.20;99.90;;;;;;4858798;29;20045;-76
2021/08/18 00:48:24;;;;;;;18.73;12.38;;;17.30;99.90;;;;;;4857849;29;20087;-76
2021/08/18 00:50:50;;;;;;;18.73;12.07;;;17.40;99.90;;;;;;4858708;29;20053;-76
2021/08/18 00:53:16;;;;;;;16.40;11.75;;;17.40;99.90;;;;;;4858353;29;20082;-75
2021/08/18 00:55:42;;;;;;;19.73;11.70;;;17.50;99.90;;;;;;4861176;29;20435;-75
2021/08/18 00:58:10;;;;;;;17.25;11.95;;;17.50;99.90;;;;;;4876942;29;20045;-76
2021/08/18 01:00:36;;;;;;;19.05;12.77;;;17.50;99.90;;;;;;4873402;29;20878;-76
2021/08/18 01:03:02;;;;;;;19.08;12.52;;;17.60;99.60;;;;;;4858167;29;20367;-76
2021/08/18 01:05:29;;;;;;;17.38;11.80;;;17.50;99.60;;;;;;4857942;29;20094;-76
2021/08/18 01:07:58;;;;;;;18.80;12.32;;;17.60;99.70;;;;;;4858577;29;20737;-76
2021/08/18 01:10:33;;;;;;;18.10;12.40;;;17.60;99.80;;;;;;4867492;29;20044;-76
2021/08/18 01:12:59;;;;;;;20.77;12.93;;;17.60;99.90;;;;;;4876146;29;20041;-76
2021/08/18 01:15:27;;;;;;;18.02;11.93;;;17.70;99.90;;;;;;4875876;29;20752;-76
2021/08/18 01:17:56;;;;;;;17.30;11.23;;;17.70;99.90;;;;;;4875909;29;20043;-76
2021/08/18 01:20:31;;;;;;;18.38;12.05;;;17.70;99.90;;;;;;4875739;29;20040;-76
2021/08/18 01:22:59;;;;;;;18.10;11.93;;;17.50;99.90;;;;;;4876680;29;20457;-75
2021/08/18 01:25:25;;;;;;;18.70;12.93;;;17.60;99.90;;;;;;4874572;29;20069;-76
2021/08/18 01:27:56;;;;;;;17.55;13.05;;;17.70;99.90;;;;;;4862572;29;20708;-76
2021/08/18 01:30:23;;;;;;;17.65;12.73;;;17.60;99.90;;;;;;4859686;29;20053;-76
2021/08/18 01:33:02;;;;;;;18.25;12.80;;;17.60;99.90;;;;;;4865449;29;20045;-76
2021/08/18 01:35:37;;;;;;;20.27;11.93;;;17.60;99.90;;;;;;4864860;29;20053;-76
2021/08/18 01:38:07;;;;;;;16.92;12.23;;;17.50;99.90;;;;;;4863585;29;20076;-76
2021/08/18 01:40:33;;;;;;;19.73;13.45;;;17.50;99.90;;;;;;4860738;29;20041;-76
2021/08/18 01:42:59;;;;;;;20.00;13.57;;;17.40;99.90;;;;;;4865290;29;20041;-76
2021/08/18 01:45:34;;;;;;;23.17;13.65;;;17.40;99.90;;;;;;4868106;29;20052;-76
2021/08/18 01:48:30;;;;;;;21.00;12.85;;;17.30;99.90;;;;;;4856614;29;20431;-75
2021/08/18 01:50:57;;;;;;;21.33;12.65;;;17.30;99.90;;;;;;4848837;29;20064;-75
2021/08/18 01:53:24;;;;;;;20.65;13.82;;;17.30;99.90;;;;;;4857530;29;20038;-75
2021/08/18 01:55:50;;;;;;;19.98;13.43;;;17.30;99.90;;;;;;4862155;29;20174;-76
2021/08/18 01:58:16;;;;;;;18.38;12.48;;;17.30;99.90;;;;;;4875956;29;20473;-75
2021/08/18 02:00:42;;;;;;;19.63;12.85;;;17.30;99.90;;;;;;4864344;29;20061;-76
2021/08/18 02:03:08;;;;;;;20.75;12.98;;;17.30;99.90;;;;;;4863598;29;20773;-76
2021/08/18 02:05:34;;;;;;;20.80;13.77;;;17.30;99.90;;;;;;4874284;29;20053;-75
2021/08/18 02:07:59;;;;;;;20.40;13.63;;;17.20;99.90;;;;;;4876063;29;20815;-76
2021/08/18 02:10:27;;;;;;;18.20;12.80;;;17.20;99.90;;;;;;4875602;29;20500;-76
2021/08/18 02:12:54;;;;;;;18.13;12.57;;;17.10;99.90;;;;;;4857811;29;20599;-76
2021/08/18 02:15:23;;;;;;;22.23;14.07;;;17.00;99.90;;;;;;4856826;29;20045;-76
2021/08/18 02:17:50;;;;;;;20.17;12.60;;;17.00;99.90;;;;;;4856735;29;20053;-75
2021/08/18 02:20:19;;;;;;;20.50;13.15;;;17.00;99.90;;;;;;4857142;29;20174;-76
2021/08/18 02:22:45;;;;;;;20.55;13.85;;;16.90;99.90;;;;;;4858166;29;20121;-76
2021/08/18 02:25:11;;;;;;;19.60;13.13;;;16.90;99.90;;;;;;4856992;29;20077;-76
2021/08/18 02:27:37;;;;;;;19.25;13.80;;;16.90;99.90;;;;;;4856202;29;20708;-76
2021/08/18 02:30:04;;;;;;;22.33;12.32;;;16.90;99.90;;;;;;4862601;29;20888;-76
2021/08/18 02:32:30;;;;;;;24.92;13.43;;;16.80;99.90;;;;;;4857683;29;20431;-75
2021/08/18 02:34:56;;;;;;;20.05;11.73;;;16.80;99.90;;;;;;4857325;29;20081;-75
2021/08/18 02:37:21;;;;;;;21.40;13.05;;;16.80;99.90;;;;;;4856487;29;20044;-76
2021/08/18 02:39:47;;;;;;;19.40;13.23;;;16.80;99.90;;;;;;4857032;29;20065;-76
2021/08/18 02:42:12;;;;;;;19.70;12.40;;;16.80;99.90;;;;;;4856328;29;20595;-76
2021/08/18 02:44:38;;;;;;;21.25;13.07;;;16.80;99.90;;;;;;4856775;29;20076;-76
2021/08/18 02:47:04;;;;;;;17.40;12.02;;;16.80;99.90;;;;;;4856080;29;20041;-75
2021/08/18 02:49:30;;;;;;;17.35;12.48;;;16.90;99.90;;;;;;4856467;29;20140;-76
2021/08/18 02:51:56;;;;;;;20.90;13.60;;;16.90;99.90;;;;;;4861597;29;20458;-75
2021/08/18 02:54:23;;;;;;;20.58;13.27;;;17.00;99.90;;;;;;4857985;29;20591;-76
2021/08/18 02:56:52;;;;;;;17.90;12.02;;;17.00;99.90;;;;;;4856259;29;20033;-76
2021/08/18 02:59:18;;;;;;;17.48;12.98;;;16.90;99.90;;;;;;4871900;29;20041;-75
2021/08/18 03:01:44;;;;;;;20.10;13.15;;;16.80;99.90;;;;;;4875084;29;20041;-76
2021/08/18 03:04:10;;;;;;;19.33;13.43;;;16.90;99.90;;;;;;4874922;29;20045;-76
2021/08/18 03:06:35;;;;;;;20.98;13.05;;;16.90;99.90;;;;;;4874965;29;20592;-76
2021/08/18 03:09:01;;;;;;;18.23;12.90;;;16.90;99.90;;;;;;4874586;29;20053;-76
2021/08/18 03:11:27;;;;;;;22.80;12.65;;;16.90;99.90;;;;;;4865914;29;20096;-76
2021/08/18 03:13:52;;;;;;;19.40;12.38;;;16.90;99.90;;;;;;4856645;29;20038;-76
2021/08/18 03:16:18;;;;;;;21.88;13.75;;;16.70;99.90;;;;;;4855990;29;20054;-76
2021/08/18 03:18:44;;;;;;;21.35;14.02;;;16.70;99.90;;;;;;4855907;29;20560;-76
2021/08/18 03:21:09;;;;;;;19.88;13.85;;;16.70;99.90;;;;;;4856758;29;20067;-76
2021/08/18 03:23:35;;;;;;;19.02;12.70;;;16.70;99.90;;;;;;4856094;29;20045;-75
2021/08/18 03:26:00;;;;;;;21.63;12.77;;;16.60;99.90;;;;;;4856497;29;20545;-76
2021/08/18 03:28:26;;;;;;;23.45;13.02;;;16.60;99.90;;;;;;4856772;29;20113;-75
2021/08/18 03:30:52;;;;;;;22.38;13.18;;;16.60;99.90;;;;;;4856231;29;20050;-76
2021/08/18 03:33:17;;;;;;;20.50;12.75;;;16.50;99.90;;;;;;4856384;29;20037;-76
2021/08/18 03:35:43;;;;;;;23.30;13.10;;;16.50;99.90;;;;;;4859425;29;20037;-76
2021/08/18 03:38:09;;;;;;;25.00;14.30;;;16.50;99.90;;;;;;4867545;29;20736;-76
2021/08/18 03:40:34;;;;;;;19.35;13.20;;;16.60;99.90;;;;;;4866281;29;20053;-76
2021/08/18 03:43:03;;;;;;;20.33;12.85;;;16.60;99.90;;;;;;4860017;29;20492;-75
2021/08/18 03:45:29;;;;;;;20.02;13.75;;;16.60;99.90;;;;;;4870466;29;20052;-76
2021/08/18 03:47:54;;;;;;;20.02;12.57;;;16.70;99.90;;;;;;4878176;29;20041;-76
2021/08/18 03:50:20;;;;;;;20.63;13.57;;;16.70;99.90;;;;;;4868705;29;20069;-76
2021/08/18 03:52:46;;;;;;;18.20;12.93;;;16.70;99.90;;;;;;4860043;29;20080;-76
2021/08/18 03:55:12;;;;;;;22.85;13.48;;;16.60;99.90;;;;;;4858812;29;20082;-76
2021/08/18 03:57:38;;;;;;;21.42;13.70;;;16.60;99.90;;;;;;4859698;29;20371;-76
2021/08/18 04:00:08;;;;;;;20.55;13.73;;;16.50;99.90;;;;;;4858902;29;20086;-76
2021/08/18 04:02:34;;;;;;;19.88;13.35;;;16.50;99.90;;;;;;4859411;29;20038;-76
2021/08/18 04:04:59;;;;;;;19.13;12.90;;;16.60;99.90;;;;;;4872153;29;20101;-76
2021/08/18 04:07:25;;;;;;;21.67;13.80;;;16.60;99.90;;;;;;4878033;29;20113;-76
2021/08/18 04:09:51;;;;;;;22.48;13.20;;;16.60;99.90;;;;;;4877949;29;20055;-76
2021/08/18 04:12:16;;;;;;;19.13;12.43;;;16.60;99.90;;;;;;4858985;29;20120;-76
2021/08/18 04:14:42;;;;;;;20.33;12.95;;;16.40;99.90;;;;;;4859111;29;20056;-76
2021/08/18 04:17:08;;;;;;;19.15;13.50;;;16.40;99.90;;;;;;4858829;29;20037;-76
2021/08/18 04:19:36;;;;;;;18.98;12.88;;;16.40;99.90;;;;;;4859669;29;20041;-76
2021/08/18 04:22:01;;;;;;;24.75;13.55;;;16.40;99.90;;;;;;4858568;29;20053;-76
2021/08/18 04:24:27;;;;;;;22.73;13.65;;;16.30;99.90;;;;;;4859560;29;20041;-76
2021/08/18 04:26:52;;;;;;;22.13;13.43;;;16.20;99.90;;;;;;4859004;29;20501;-76
2021/08/18 04:29:18;;;;;;;22.90;13.98;;;16.00;99.90;;;;;;4859636;29;20045;-76
2021/08/18 04:31:44;;;;;;;19.30;13.35;;;15.90;99.90;;;;;;4868182;29;20121;-76
2021/08/18 04:34:09;;;;;;;20.92;13.65;;;15.90;99.90;;;;;;4859075;29;20485;-76
2021/08/18 04:36:35;;;;;;;20.08;12.88;;;15.80;99.90;;;;;;4868313;29;20120;-76
2021/08/18 04:39:01;;;;;;;25.73;13.38;;;15.70;99.90;;;;;;4890876;29;20253;-76
2021/08/18 04:41:26;;;;;;;20.33;13.27;;;15.70;99.90;;;;;;4876658;29;20045;-76
2021/08/18 04:43:52;;;;;;;21.95;12.07;;;15.70;99.90;;;;;;4877486;29;20049;-76
2021/08/18 04:46:17;;;;;;;21.33;13.43;;;15.60;99.90;;;;;;4861393;29;20158;-76
2021/08/18 04:48:43;;;;;;;20.23;12.90;;;15.60;99.90;;;;;;4862056;29;20501;-76
2021/08/18 04:51:09;;;;;;;18.25;12.82;;;15.70;99.90;;;;;;4869737;29;20041;-76
2021/08/18 04:53:35;;;;;;;20.67;12.68;;;15.60;99.90;;;;;;4875414;29;20178;-76
2021/08/18 04:56:01;;;;;;;24.42;14.30;;;15.50;99.90;;;;;;4877327;29;20089;-75
2021/08/18 04:58:27;;;;;;;20.60;12.15;;;15.40;99.90;;;;;;4891057;29;20790;-76
2021/08/18 05:00:52;;;;;;;21.75;13.68;;;15.40;99.90;;;;;;4885406;29;20080;-76
2021/08/18 05:03:18;;;;;;;21.83;13.88;;;15.40;99.90;;;;;;4858421;29;20046;-75
2021/08/18 05:05:43;;;;;;;21.65;13.18;;;15.40;99.90;;;;;;4857864;29;20045;-76
2021/08/18 05:08:09;;;;;;;25.27;15.43;;;15.30;99.90;;;;;;4869536;29;20100;-76
2021/08/18 05:10:36;;;;;;;23.90;13.40;;;15.30;99.90;;;;;;4876677;29;20041;-75
2021/08/18 05:13:01;;;;;;;22.75;13.98;;;15.40;99.90;;;;;;4865451;29;20049;-76
2021/08/18 05:15:27;;;;;;;28.10;15.25;;;15.40;99.90;;;;;;4858209;29;20045;-76
2021/08/18 05:17:53;;;;;;;24.38;14.40;;;15.40;99.90;;;;;;4856567;29;20045;-76
2021/08/18 05:20:20;;;;;;;21.52;13.48;;;15.40;99.90;;;;;;4857126;29;20062;-76
2021/08/18 05:22:46;;;;;;;22.77;13.95;;;15.40;99.90;;;;;;4874742;29;20044;-76
2021/08/18 05:25:13;;;;;;;24.35;14.27;;;15.50;99.90;;;;;;4876073;29;20045;-76
2021/08/18 05:27:39;;;;;;;26.30;14.25;;;15.50;99.90;;;;;;4870407;29;20049;-75
2021/08/18 05:30:09;;;;;;;21.95;14.38;;;15.50;99.90;;;;;;4858096;29;20052;-76
2021/08/18 05:32:38;;;;;;;23.65;14.77;;;15.50;99.90;;;;;;4861154;29;20061;-75
2021/08/18 05:35:09;;;;;;;24.80;14.00;;;15.40;99.90;;;;;;4874567;29;20041;-76
2021/08/18 05:37:35;;;;;;;26.27;14.20;;;15.30;99.90;;;;;;4873216;29;20453;-76
2021/08/18 05:40:02;;;;;;;28.55;16.85;;;15.40;99.90;;;;;;4863561;29;20521;-76
2021/08/18 05:42:27;;;;;;;25.83;16.50;;;15.50;99.90;;;;;;4875152;29;20490;-76
2021/08/18 05:44:53;;;;;;;24.77;15.32;;;15.60;99.90;;;;;;4857942;29;20037;-75
2021/08/18 05:47:20;;;;;;;22.83;15.70;;;15.70;99.90;;;;;;4857222;29;20050;-76
2021/08/18 05:49:45;;;;;;;24.60;15.93;;;15.70;99.90;;;;;;4856966;29;20085;-75
2021/08/18 05:52:11;;;;;;;25.55;14.88;;;15.90;99.90;;;;;;4857468;29;20049;-75
2021/08/18 05:54:38;;;;;;;24.00;15.15;;;15.90;99.90;;;;;;4857431;29;20576;-75
2021/08/18 05:57:05;;;;;;;22.77;13.88;;;16.00;99.90;;;;;;4857512;29;20088;-76
2021/08/18 05:59:30;;;;;;;24.08;14.57;;;16.20;99.90;;;;;;4857352;29;20037;-76
2021/08/18 06:01:56;;;;;;;24.02;15.93;;;16.20;99.90;;;;;;4857338;29;20449;-75
2021/08/18 06:04:21;;;;;;;23.02;13.88;;;16.40;99.90;;;;;;4856444;29;20037;-76
2021/08/18 06:06:47;;;;;;;21.40;13.82;;;16.70;99.90;;;;;;4857356;29;20068;-76
2021/08/18 06:09:12;;;;;;;23.63;14.38;;;16.60;99.90;;;;;;4863011;29;20109;-76
2021/08/18 06:11:40;;;;;;;22.63;14.45;;;16.80;99.90;;;;;;4876082;29;20045;-75
2021/08/18 06:14:07;;;;;;;26.10;14.95;;;16.90;99.90;;;;;;4866649;29;20037;-75
2021/08/18 06:16:33;;;;;;;24.38;14.48;;;17.20;99.90;;;;;;4874755;29;20109;-76
2021/08/18 06:18:59;;;;;;;23.00;14.32;;;17.30;99.90;;;;;;4862301;29;20036;-75
2021/08/18 06:21:25;;;;;;;27.98;15.00;;;17.50;99.90;;;;;;4865115;29;20033;-75
2021/08/18 06:23:53;;;;;;;20.05;14.00;;;17.60;99.90;;;;;;4868986;29;20049;-76
2021/08/18 06:26:19;;;;;;;23.83;13.93;;;17.80;99.90;;;;;;4865810;29;20055;-76
2021/08/18 06:28:44;;;;;;;21.63;13.35;;;17.80;99.90;;;;;;4868306;29;20041;-76
2021/08/18 06:31:10;;;;;;;22.58;14.50;;;17.90;99.90;;;;;;4859300;29;20053;-76
2021/08/18 06:33:36;;;;;;;23.08;14.20;;;18.00;99.90;;;;;;4876758;29;20041;-76
2021/08/18 06:36:02;;;;;;;21.02;13.48;;;17.90;99.90;;;;;;4866821;29;20081;-76
2021/08/18 06:38:29;;;;;;;24.05;14.68;;;18.10;99.90;;;;;;4867221;29;20406;-76
2021/08/18 06:40:55;;;;;;;20.60;14.43;;;18.10;99.90;;;;;;4857865;29;20042;-76
2021/08/18 06:43:20;;;;;;;19.90;13.60;;;18.10;99.90;;;;;;4867939;29;20990;-75
2021/08/18 06:45:46;;;;;;;22.27;13.35;;;18.30;99.90;;;;;;4879184;29;20106;-76
2021/08/18 06:48:11;;;;;;;20.98;14.98;;;18.60;99.90;;;;;;4866776;29;20052;-76
2021/08/18 06:50:37;;;;;;;30.15;13.20;;;18.70;99.90;;;;;;4864339;29;20041;-76
2021/08/18 06:53:03;;;;;;;24.27;13.85;;;18.80;99.90;;;;;;4867484;29;20098;-76
2021/08/18 06:55:30;;;;;;;20.58;13.50;;;19.00;99.60;;;;;;4866129;29;20053;-76
2021/08/18 06:57:56;;;;;;;21.17;13.15;;;18.90;99.70;;;;;;4865847;29;20113;-75
2021/08/18 07:00:21;;;;;;;22.80;13.98;;;18.90;99.60;;;;;;4858725;29;20073;-76
2021/08/18 07:02:51;;;;;;;20.10;12.77;;;19.20;99.50;;;;;;4866181;29;20452;-76
2021/08/18 07:05:18;;;;;;;21.05;13.75;;;19.50;99.20;;;;;;4862567;29;20458;-76
2021/08/18 07:07:44;;;;;;;21.20;13.23;;;19.70;98.90;;;;;;4864494;29;20397;-76
2021/08/18 07:10:10;;;;;;;23.75;13.43;;;19.90;99.10;;;;;;4863043;29;20090;-75
2021/08/18 07:12:36;;;;;;;23.60;15.02;;;20.20;98.70;;;;;;4863764;29;20049;-76
2021/08/18 07:15:03;;;;;;;23.08;14.25;;;20.20;98.40;;;;;;4862159;29;20106;-75
2021/08/18 07:17:29;;;;;;;20.25;13.75;;;20.50;97.60;;;;;;4867404;29;20033;-75
2021/08/18 07:19:54;;;;;;;20.65;13.82;;;20.40;97.60;;;;;;4869329;29;20168;-75
2021/08/18 07:22:20;;;;;;;21.05;14.32;;;20.70;97.50;;;;;;4870654;29;20029;-76
2021/08/18 07:24:45;;;;;;;21.48;13.52;;;20.70;97.30;;;;;;4881619;29;20092;-76
2021/08/18 07:27:11;;;;;;;18.17;14.10;;;20.80;97.10;;;;;;4865873;29;20049;-76
2021/08/18 07:29:37;;;;;;;21.38;13.82;;;20.90;96.80;;;;;;4867219;29;20105;-76
2021/08/18 07:32:03;;;;;;;18.17;13.13;;;21.20;96.40;;;;;;4869769;29;20052;-77
2021/08/18 07:34:28;;;;;;;19.33;13.90;;;21.40;96.00;;;;;;4870563;29;20052;-79
2021/08/18 07:36:54;;;;;;;20.75;13.32;;;21.40;95.40;;;;;;4870949;29;20401;-76
2021/08/18 07:39:19;;;;;;;19.20;13.68;;;21.10;95.60;;;;;;4874137;29;20055;-76
2021/08/18 07:41:45;;;;;;;23.00;13.52;;;21.10;95.60;;;;;;4880737;29;20041;-75
2021/08/18 07:44:11;;;;;;;19.38;12.88;;;20.50;95.80;;;;;;4867182;29;20049;-76
2021/08/18 07:46:36;;;;;;;19.35;14.05;;;20.60;96.50;;;;;;4871244;29;20045;-75
2021/08/18 07:49:02;;;;;;;20.13;13.95;;;20.30;96.20;;;;;;4874041;29;20056;-76
2021/08/18 07:51:27;;;;;;;20.90;13.80;;;20.20;96.30;;;;;;4874084;29;20839;-76
2021/08/18 07:53:53;;;;;;;20.27;13.25;;;20.00;96.30;;;;;;4865638;29;20048;-76
2021/08/18 07:56:19;;;;;;;18.63;12.80;;;19.90;96.60;;;;;;4868475;29;20064;-75
2021/08/18 07:58:44;;;;;;;19.30;12.88;;;19.70;96.40;;;;;;4877839;29;20037;-76
2021/08/18 08:01:10;;;;;;;19.73;13.57;;;19.80;96.40;;;;;;4874481;29;20124;-76
2021/08/18 08:03:35;;;;;;;20.17;13.02;;;19.40;96.70;;;;;;4874068;29;20843;-76
2021/08/18 08:06:01;;;;;;;20.90;13.48;;;19.60;96.50;;;;;;4864312;29;20117;-75
2021/08/18 08:08:27;;;;;;;19.48;13.65;;;19.60;96.90;;;;;;4867775;29;20689;-76
2021/08/18 08:10:52;;;;;;;19.30;12.18;;;19.70;96.90;;;;;;4876463;29;20045;-76
2021/08/18 08:13:18;;;;;;;20.00;12.90;;;19.90;96.50;;;;;;4867406;29;20045;-76
2021/08/18 08:15:43;;;;;;;20.42;12.05;;;20.10;96.50;;;;;;4872719;29;20049;-76
2021/08/18 08:18:10;;;;;;;20.50;13.55;;;20.40;96.30;;;;;;4862685;29;20050;-76
2021/08/18 08:20:39;;;;;;;21.73;13.35;;;20.40;96.10;;;;;;4878322;29;20039;-76
2021/08/18 08:23:04;;;;;;;26.52;14.40;;;20.30;96.70;;;;;;4863834;29;20041;-76
2021/08/18 08:25:30;;;;;;;20.40;13.00;;;19.90;95.80;;;;;;4872976;29;20496;-76
2021/08/18 08:27:56;;;;;;;21.40;13.27;;;19.80;96.30;;;;;;4861005;29;20107;-76
2021/08/18 08:30:21;;;;;;;25.02;13.80;;;19.90;95.70;;;;;;4874003;29;20049;-76
2021/08/18 08:32:49;;;;;;;19.42;12.88;;;19.60;96.40;;;;;;4864746;29;20502;-76
2021/08/18 08:35:15;;;;;;;18.90;12.70;;;20.00;96.60;;;;;;4859678;29;20405;-76
2021/08/18 08:37:41;;;;;;;18.50;12.77;;;20.20;96.40;;;;;;4885659;29;20610;-76
2021/08/18 08:40:07;;;;;;;20.48;13.52;;;20.10;96.50;;;;;;4866698;29;20037;-76
2021/08/18 08:42:33;;;;;;;21.42;13.30;;;20.80;96.60;;;;;;4875573;29;20052;-76
2021/08/18 08:45:03;;;;;;;16.58;12.73;;;21.20;95.70;;;;;;4868888;29;20037;-76
2021/08/18 08:47:29;;;;;;;20.73;13.40;;;21.50;95.00;;;;;;4856373;29;20078;-76
2021/08/18 08:49:56;;;;;;;21.02;14.20;;;21.60;94.60;;;;;;4864112;29;20629;-76
2021/08/18 08:52:22;;;;;;;19.95;13.35;;;21.10;94.40;;;;;;4870272;29;20983;-76
2021/08/18 08:54:48;;;;;;;20.13;13.18;;;21.30;94.40;;;;;;4874128;29;20052;-76
2021/08/18 08:57:14;;;;;;;17.70;12.02;;;21.10;93.90;;;;;;4877753;29;20056;-76
2021/08/18 08:59:40;;;;;;;18.98;12.25;;;21.00;93.60;;;;;;4868576;29;20170;-76
2021/08/18 09:02:11;;;;;;;18.17;12.07;;;20.80;93.50;;;;;;4864104;29;20061;-75
2021/08/18 09:04:46;;;;;;;21.98;13.00;;;21.00;94.00;;;;;;4862531;29;20067;-75
2021/08/18 09:07:12;;;;;;;17.38;12.25;;;21.60;94.30;;;;;;4865854;29;20053;-76
2021/08/18 09:09:40;;;;;;;19.13;12.48;;;21.70;93.40;;;;;;4868413;29;20045;-77
2021/08/18 09:12:12;;;;;;;18.63;11.90;;;22.20;92.90;;;;;;4869292;29;20037;-76
2021/08/18 09:14:38;;;;;;;;;;;22.10;92.90;;;;;;4864230;29;20054;-77
2021/08/18 09:17:35;;;;;;;20.52;12.38;;;22.40;92.80;;;;;;4867695;29;19964;-76
2021/08/18 09:20:09;;;;;;;17.70;11.65;;;22.80;92.00;;;;;;4873985;29;20455;-77
2021/08/18 09:22:39;;;;;;;20.92;12.48;;;22.80;91.50;;;;;;4867568;29;20053;-76
2021/08/18 09:25:14;;;;;;;24.75;14.00;;;23.00;91.20;;;;;;4870584;29;20045;-76
2021/08/18 09:27:40;;;;;;;25.95;14.68;;;22.90;91.30;;;;;;4867181;29;20128;-76
2021/08/18 09:30:07;;;;;;;56.45;23.40;;;23.00;91.30;;;;;;4862001;29;20064;-76
2021/08/18 09:32:36;;;;;;;28.60;15.57;;;23.20;91.10;;;;;;4858145;29;20037;-76
2021/08/18 09:35:08;;;;;;;23.77;13.60;;;23.10;91.20;;;;;;4862239;29;20541;-76
2021/08/18 09:37:34;;;;;;;;;;;23.20;91.30;;;;;;4865802;29;20052;-76
2021/08/18 09:40:00;;;;;;;17.45;12.13;;;22.70;91.20;;;;;;4866888;29;19919;-76
2021/08/18 09:42:29;;;;;;;17.80;12.20;;;22.10;92.30;;;;;;4867447;29;20036;-76
2021/08/18 09:45:19;;;;;;;21.30;12.80;;;22.40;92.70;;;;;;4862749;29;20129;-76
2021/08/18 09:47:55;;;;;;;25.77;13.25;;;22.40;92.70;;;;;;4864912;29;20702;-76
2021/08/18 09:50:23;;;;;;;21.63;12.85;;;22.40;92.70;;;;;;4872290;29;20060;-76
2021/08/18 09:52:51;;;;;;;19.75;10.73;;;22.30;91.90;;;;;;4871041;29;20036;-76
2021/08/18 09:55:21;;;;;;;25.40;14.23;;;21.90;92.90;;;;;;4880002;29;20120;-77
2021/08/18 09:57:47;;;;;;;18.73;12.95;;;22.10;92.90;;;;;;4860005;29;20571;-76
2021/08/18 10:00:13;;;;;;;21.73;14.32;;;22.20;93.10;;;;;;4867271;29;20065;-76
2021/08/18 10:02:39;;;;;;;21.80;13.68;;;22.30;93.90;;;;;;4862091;29;20066;-76
2021/08/18 10:05:06;;;;;;;30.92;15.80;;;22.60;92.70;;;;;;4856035;29;20049;-76
2021/08/18 10:07:32;;;;;;;22.35;14.00;;;23.10;93.00;;;;;;4859089;29;20550;-76
2021/08/18 10:10:02;;;;;;;18.95;12.18;;;22.90;92.80;;;;;;4859876;29;20073;-76
2021/08/18 10:12:29;;;;;;;19.05;13.38;;;22.50;93.20;;;;;;4864090;29;20040;-76
2021/08/18 10:14:54;;;;;;;17.42;12.35;;;22.90;93.90;;;;;;4872945;29;20049;-76
2021/08/18 10:17:21;;;;;;;21.38;13.30;;;23.30;93.30;;;;;;4864540;29;20041;-76
2021/08/18 10:19:51;;;;;;;18.17;12.70;;;23.10;93.10;;;;;;4870938;29;20157;-76
2021/08/18 10:22:25;;;;;;;19.25;12.50;;;23.10;93.20;;;;;;4869663;29;20060;-76
2021/08/18 10:24:50;;;;;;;19.10;12.63;;;23.40;92.80;;;;;;4864982;29;20109;-76
2021/08/18 10:27:46;;;;;;;19.10;12.90;;;23.40;92.90;;;;;;4862837;29;20076;-76
2021/08/18 10:30:23;;;;;;;17.30;12.13;;;23.30;93.10;;;;;;4869188;29;20108;-76
2021/08/18 10:32:49;;;;;;;17.55;11.93;;;23.70;92.40;;;;;;4856950;29;20038;-76
2021/08/18 10:35:36;;;;;;;16.23;12.18;;;23.70;92.80;;;;;;4857852;29;20128;-76
2021/08/18 10:38:24;;;;;;;16.08;11.57;;;23.40;92.30;;;;;;4865308;29;20529;-76
2021/08/18 10:40:50;;;;;;;18.15;11.90;;;23.40;92.20;;;;;;4871253;29;20386;-76
2021/08/18 10:44:01;;;;;;;15.60;10.88;;;23.70;92.50;;;;;;4862630;29;20025;-76
2021/08/18 10:46:27;;;;;;;16.45;12.07;;;23.70;92.10;;;;;;4859156;29;20049;-76
2021/08/18 10:48:56;;;;;;;16.10;12.13;;;23.30;92.20;;;;;;4863236;29;20524;-76
2021/08/18 10:51:39;;;;;;;17.88;11.75;;;23.40;92.80;;;;;;4879298;29;20049;-76
2021/08/18 10:54:27;;;;;;;21.13;11.98;;;23.50;92.10;;;;;;4868592;29;20121;-75
2021/08/18 10:56:57;;;;;;;15.82;10.63;;;23.50;93.00;;;;;;4874742;29;20063;-76
2021/08/18 10:59:35;;;;;;;21.25;11.98;;;23.30;92.90;;;;;;4873137;29;20148;-76
2021/08/18 11:02:04;;;;;;;18.58;12.30;;;23.50;93.20;;;;;;4874874;29;20116;-76
2021/08/18 11:04:47;;;;;;;20.23;12.70;;;23.90;92.90;;;;;;4864215;29;20037;-76
2021/08/18 11:07:14;;;;;;;26.45;14.38;;;23.70;92.70;;;;;;4875828;29;20053;-76
2021/08/18 11:09:54;;;;;;;17.30;11.82;;;23.90;92.70;;;;;;4871554;29;20045;-76
2021/08/18 11:12:38;;;;;;;19.52;10.82;;;23.90;92.90;;;;;;4877709;29;20041;-76
2021/08/18 11:15:24;;;;;;;14.57;10.95;;;23.50;93.00;;;;;;4872222;29;20045;-76
2021/08/18 11:17:51;;;;;;;20.38;12.35;;;23.70;93.10;;;;;;4865624;29;20045;-75
2021/08/18 11:20:22;;;;;;;19.13;11.95;;;23.80;92.70;;;;;;4863729;29;20049;-75
2021/08/18 11:23:06;;;;;;;16.87;11.33;;;23.90;93.40;;;;;;4864874;29;20038;-75
2021/08/18 11:25:44;;;;;;;18.48;11.38;;;23.70;92.90;;;;;;4864394;29;20050;-76
2021/08/18 11:28:21;;;;;;;19.48;11.35;;;23.90;92.70;;;;;;4868283;29;20038;-75
2021/08/18 11:30:55;;;;;;;16.23;10.45;;;23.80;93.20;;;;;;4871898;29;20045;-75
2021/08/18 11:33:22;;;;;;;16.00;10.55;;;23.90;93.10;;;;;;4868384;29;20034;-75
2021/08/18 11:35:47;;;;;;;17.70;11.32;;;23.80;92.50;;;;;;4864980;29;20605;-75
2021/08/18 11:38:13;;;;;;;18.38;11.25;;;23.90;92.50;;;;;;4868309;29;20047;-75
2021/08/18 11:40:40;;;;;;;16.30;10.52;;;24.40;92.60;;;;;;4863135;29;20049;-75
2021/08/18 11:43:06;;;;;;;18.00;10.98;;;24.40;92.80;;;;;;4863795;29;20111;-76
2021/08/18 11:45:35;;;;;;;15.43;10.15;;;24.70;92.30;;;;;;4867872;29;20045;-75
2021/08/18 11:48:09;;;;;;;17.08;11.57;;;25.00;91.40;;;;;;4868250;29;20036;-76
2021/08/18 11:50:36;;;;;;;13.57;10.05;;;24.90;92.00;;;;;;4869521;29;20599;-75
2021/08/18 11:53:06;;;;;;;15.73;9.88;;;24.80;91.30;;;;;;4868406;29;20497;-75
2021/08/18 11:55:34;;;;;;;12.82;9.98;;;24.20;91.60;;;;;;4863053;29;20080;-75
2021/08/18 11:58:05;;;;;;;16.30;10.38;;;24.40;91.70;;;;;;4864411;29;20120;-75
2021/08/18 12:00:31;;;;;;;15.07;9.97;;;24.40;91.40;;;;;;4867231;29;20552;-75
2021/08/18 12:02:58;;;;;;;14.13;9.63;;;24.70;91.00;;;;;;4867941;29;20289;-75
2021/08/18 12:05:32;;;;;;;19.00;9.20;;;24.60;90.90;;;;;;4864779;29;20034;-75
2021/08/18 12:08:17;;;;;;;13.57;8.82;;;24.30;90.80;;;;;;4864487;29;20128;-75
2021/08/18 12:10:45;;;;;;;14.30;9.48;;;24.20;91.10;;;;;;4867797;29;20073;-75
2021/08/18 12:13:14;;;;;;;12.30;8.30;;;24.60;91.60;;;;;;4867187;29;20049;-75
2021/08/18 12:15:49;;;;;;;13.48;8.75;;;24.80;91.20;;;;;;4862417;29;20037;-75
2021/08/18 12:18:30;;;;;;;13.50;8.35;;;25.20;90.90;;;;;;4860601;29;20484;-76
2021/08/18 12:21:15;;;;;;;11.77;8.52;;;25.40;90.00;;;;;;4865678;29;20040;-75
2021/08/18 12:23:40;;;;;;;14.95;8.75;;;25.20;89.60;;;;;;4868355;29;20800;-75
2021/08/18 12:26:33;;;;;;;15.18;8.27;;;25.10;90.00;;;;;;4865940;29;20041;-75
2021/08/18 12:29:01;;;;;;;14.40;9.02;;;25.00;90.30;;;;;;4867241;29;20077;-76
2021/08/18 12:32:00;;;;;;;13.02;9.18;;;25.20;90.60;;;;;;4865038;29;20657;-76
2021/08/18 12:34:42;;;;;;;12.70;8.95;;;25.30;89.80;;;;;;4868982;29;20073;-76